Time;durP1;ratioP1;P1;durP2;ratioP2;P2;SDS_P1;SDS_P2;PMS_P1;PMS_P2;Temp;Humidity;BMP_temperature;BMP_pressure;BME280_temperature;BME280_humidity;BME280_pressure;Samples;Min_cycle;Max_cycle;Signal;HPM_P1;HPM_P2
2021/03/05 00:00:24;;;;;;;8.47;5.50;;;4.20;99.90;;;;;;5105185;28;20245;-74
2021/03/05 00:02:50;;;;;;;7.97;5.47;;;4.20;99.90;;;;;;5105532;28;20206;-74
2021/03/05 00:05:17;;;;;;;6.60;5.03;;;4.20;99.90;;;;;;5105436;28;20216;-74
2021/03/05 00:07:43;;;;;;;6.43;4.80;;;4.20;99.90;;;;;;5105682;28;20213;-74
2021/03/05 00:10:11;;;;;;;9.60;5.57;;;4.20;99.90;;;;;;5104863;28;20214;-74
2021/03/05 00:12:38;;;;;;;5.60;4.40;;;4.20;99.90;;;;;;5105568;28;20217;-74
2021/03/05 00:15:07;;;;;;;5.83;4.80;;;4.20;99.90;;;;;;5105537;28;20810;-74
2021/03/05 00:17:34;;;;;;;9.17;5.27;;;4.20;99.90;;;;;;5105599;28;20218;-74
2021/03/05 00:20:01;;;;;;;7.37;5.60;;;4.20;99.90;;;;;;5105178;28;20579;-74
2021/03/05 00:22:27;;;;;;;6.77;5.30;;;4.20;99.90;;;;;;5105253;28;20245;-74
2021/03/05 00:24:53;;;;;;;8.37;5.87;;;4.20;99.90;;;;;;5105673;28;20206;-74
2021/03/05 00:27:19;;;;;;;7.73;5.87;;;4.10;99.90;;;;;;5105317;28;20209;-74
2021/03/05 00:29:46;;;;;;;8.27;5.73;;;4.20;99.90;;;;;;5105506;28;20609;-74
2021/03/05 00:32:12;;;;;;;9.60;5.93;;;4.20;99.90;;;;;;5106378;28;20246;-74
2021/03/05 00:34:38;;;;;;;7.67;6.47;;;4.10;99.90;;;;;;5108643;28;20206;-75
2021/03/05 00:37:05;;;;;;;6.77;5.80;;;4.10;99.90;;;;;;5109395;28;20240;-75
2021/03/05 00:39:31;;;;;;;9.87;5.70;;;4.00;99.90;;;;;;5109040;28;20575;-75
2021/03/05 00:41:57;;;;;;;11.73;5.63;;;4.00;99.90;;;;;;5109174;28;20280;-74
2021/03/05 00:44:23;;;;;;;9.73;5.83;;;4.00;99.90;;;;;;5109100;28;20203;-75
2021/03/05 00:46:50;;;;;;;13.47;6.30;;;4.00;99.90;;;;;;5108849;28;20202;-75
2021/03/05 00:49:16;;;;;;;12.37;6.07;;;4.00;99.90;;;;;;5108916;28;20210;-75
2021/03/05 00:51:43;;;;;;;14.13;6.60;;;3.90;99.90;;;;;;5108959;28;20206;-74
2021/03/05 00:54:09;;;;;;;10.37;6.20;;;3.90;99.90;;;;;;5112170;28;20263;-75
2021/03/05 00:56:35;;;;;;;13.57;6.07;;;3.90;99.90;;;;;;5109146;27;20229;-73
2021/03/05 00:59:01;;;;;;;10.63;5.97;;;3.90;99.90;;;;;;5091588;28;20248;-75
2021/03/05 01:01:28;;;;;;;11.30;6.57;;;3.90;99.90;;;;;;5102458;28;20233;-75
2021/03/05 01:03:55;;;;;;;12.20;6.43;;;3.90;99.90;;;;;;5111823;28;20567;-75
2021/03/05 01:06:21;;;;;;;9.40;6.07;;;3.80;99.90;;;;;;5111764;28;20217;-75
2021/03/05 01:08:47;;;;;;;11.53;6.10;;;3.80;99.90;;;;;;5111278;28;20268;-75
2021/03/05 01:11:13;;;;;;;12.00;6.03;;;3.80;99.90;;;;;;5111696;28;20213;-76
2021/03/05 01:13:39;;;;;;;13.20;6.57;;;3.70;99.90;;;;;;5111712;28;20210;-75
2021/03/05 01:16:06;;;;;;;10.73;6.33;;;3.70;99.90;;;;;;5107950;28;20638;-75
2021/03/05 01:18:32;;;;;;;8.07;5.30;;;3.70;99.90;;;;;;5091046;28;20293;-75
2021/03/05 01:20:59;;;;;;;11.10;5.83;;;3.70;99.90;;;;;;5091017;28;20207;-75
2021/03/05 01:23:25;;;;;;;8.73;5.27;;;3.70;99.90;;;;;;5090818;28;20203;-75
2021/03/05 01:25:51;;;;;;;9.07;5.00;;;3.70;99.90;;;;;;5090875;28;20634;-75
2021/03/05 01:28:17;;;;;;;10.83;5.63;;;3.60;99.90;;;;;;5091041;28;20199;-75
2021/03/05 01:30:44;;;;;;;8.40;5.30;;;3.60;99.90;;;;;;5090749;28;20215;-75
2021/03/05 01:33:10;;;;;;;11.07;4.93;;;3.60;99.90;;;;;;5089937;28;20260;-74
2021/03/05 01:35:36;;;;;;;12.83;5.43;;;3.70;99.90;;;;;;5089848;28;20257;-73
2021/03/05 01:38:04;;;;;;;9.53;5.13;;;3.70;99.90;;;;;;5090856;28;20209;-73
2021/03/05 01:40:32;;;;;;;12.83;5.90;;;3.60;99.90;;;;;;5090798;28;20207;-74
2021/03/05 01:42:59;;;;;;;14.47;5.60;;;3.60;99.90;;;;;;5090740;28;20234;-75
2021/03/05 01:45:27;;;;;;;12.90;5.83;;;3.60;99.90;;;;;;5090867;28;20572;-75
2021/03/05 01:47:56;;;;;;;13.10;5.53;;;3.60;99.90;;;;;;5090737;28;20206;-75
2021/03/05 01:50:26;;;;;;;11.77;5.97;;;3.50;99.90;;;;;;5090596;28;20198;-75
2021/03/05 01:52:56;;;;;;;14.87;5.93;;;3.50;99.90;;;;;;5090747;28;20233;-75
2021/03/05 01:55:23;;;;;;;14.33;6.13;;;3.50;99.90;;;;;;5090116;28;20774;-75
2021/03/05 01:57:50;;;;;;;14.63;6.00;;;3.40;99.90;;;;;;5090445;28;20624;-75
2021/03/05 02:00:19;;;;;;;15.97;6.67;;;3.50;99.90;;;;;;5090053;28;20640;-74
2021/03/05 02:02:46;;;;;;;18.23;6.87;;;3.40;99.90;;;;;;5090168;28;20202;-74
2021/03/05 02:05:12;;;;;;;15.23;6.37;;;3.30;99.90;;;;;;5090352;28;20202;-75
2021/03/05 02:07:39;;;;;;;15.50;6.90;;;3.30;99.90;;;;;;5090374;28;20218;-74
2021/03/05 02:10:07;;;;;;;15.57;6.43;;;3.20;99.90;;;;;;5090269;28;20234;-74
2021/03/05 02:12:34;;;;;;;15.97;7.00;;;3.30;99.90;;;;;;5090092;28;20264;-74
2021/03/05 02:15:01;;;;;;;14.47;7.13;;;3.20;99.90;;;;;;5089835;28;20214;-74
2021/03/05 02:17:32;;;;;;;14.97;7.00;;;3.20;99.90;;;;;;5089890;28;20217;-74
2021/03/05 02:20:16;;;;;;;15.33;7.23;;;3.20;99.90;;;;;;5089923;28;20680;-74
2021/03/05 02:23:13;;;;;;;15.77;7.07;;;3.10;99.90;;;;;;5089833;28;20205;-75
2021/03/05 02:26:02;;;;;;;14.97;6.80;;;3.10;99.90;;;;;;5089915;28;20635;-75
2021/03/05 02:28:57;;;;;;;15.33;6.67;;;3.00;99.90;;;;;;5089668;28;20198;-75
2021/03/05 02:31:32;;;;;;;14.33;6.57;;;3.00;99.90;;;;;;5089866;28;20206;-75
2021/03/05 02:34:02;;;;;;;12.07;5.80;;;2.90;99.90;;;;;;5089946;28;20191;-75
2021/03/05 02:36:33;;;;;;;11.67;5.93;;;2.90;99.90;;;;;;5089411;28;20230;-75
2021/03/05 02:39:04;;;;;;;12.43;5.60;;;2.80;99.90;;;;;;5089998;28;20198;-76
2021/03/05 02:41:31;;;;;;;12.70;5.87;;;2.90;99.90;;;;;;5089424;28;20223;-76
2021/03/05 02:43:58;;;;;;;16.20;5.53;;;2.80;99.90;;;;;;5089582;28;20210;-76
2021/03/05 02:46:27;;;;;;;11.80;5.13;;;2.80;99.90;;;;;;5089385;28;20825;-76
2021/03/05 02:48:58;;;;;;;10.93;5.67;;;2.80;99.90;;;;;;5089957;28;20372;-75
2021/03/05 02:51:26;;;;;;;12.30;5.60;;;2.80;99.90;;;;;;5106106;28;20483;-75
2021/03/05 02:53:54;;;;;;;11.33;5.13;;;2.80;99.90;;;;;;5109848;27;20209;-75
2021/03/05 02:56:21;;;;;;;10.33;5.53;;;2.70;99.90;;;;;;5109120;28;20234;-75
2021/03/05 02:58:51;;;;;;;8.10;4.63;;;2.70;99.90;;;;;;5109677;28;20278;-75
2021/03/05 03:01:19;;;;;;;6.47;4.00;;;2.70;99.90;;;;;;5109222;28;20237;-75
2021/03/05 03:03:46;;;;;;;9.37;3.97;;;2.70;99.90;;;;;;5109344;28;20255;-75
2021/03/05 03:06:14;;;;;;;6.77;4.13;;;2.70;99.90;;;;;;5109482;28;20206;-75
2021/03/05 03:08:41;;;;;;;4.77;3.63;;;2.70;99.90;;;;;;5109512;28;20213;-75
2021/03/05 03:11:08;;;;;;;6.53;3.93;;;2.70;99.90;;;;;;5109399;28;20261;-75
2021/03/05 03:13:36;;;;;;;6.70;3.73;;;2.70;99.90;;;;;;5109630;28;20575;-75
2021/03/05 03:16:03;;;;;;;6.57;4.03;;;2.70;99.90;;;;;;5109267;28;20225;-76
2021/03/05 03:18:32;;;;;;;5.30;3.83;;;2.60;99.90;;;;;;5109375;28;20210;-76
2021/03/05 03:21:04;;;;;;;5.83;3.67;;;2.50;99.90;;;;;;5109144;28;20208;-76
2021/03/05 03:23:31;;;;;;;4.73;3.50;;;2.60;99.90;;;;;;5108902;28;20195;-74
2021/03/05 03:25:59;;;;;;;5.27;3.40;;;2.50;99.90;;;;;;5109155;28;20255;-74
2021/03/05 03:28:26;;;;;;;6.97;3.67;;;2.50;99.90;;;;;;5109188;28;20200;-75
2021/03/05 03:30:52;;;;;;;6.77;3.90;;;2.50;99.90;;;;;;5108943;28;20206;-75
2021/03/05 03:33:19;;;;;;;4.40;4.00;;;2.40;99.90;;;;;;5109128;28;20598;-75
2021/03/05 03:35:45;;;;;;;6.20;3.83;;;2.40;99.90;;;;;;5108716;28;20692;-75
2021/03/05 03:38:12;;;;;;;6.67;3.80;;;2.30;99.90;;;;;;5109030;28;20211;-75
2021/03/05 03:40:40;;;;;;;7.00;3.30;;;2.30;99.90;;;;;;5108745;28;20210;-75
2021/03/05 03:43:07;;;;;;;5.17;3.10;;;2.30;99.90;;;;;;5108861;28;20198;-75
2021/03/05 03:45:35;;;;;;;4.63;3.60;;;2.20;99.90;;;;;;5108827;28;20221;-75
2021/03/05 03:48:03;;;;;;;5.17;3.37;;;2.20;99.90;;;;;;5108470;28;20661;-75
2021/03/05 03:50:33;;;;;;;3.93;3.20;;;2.20;99.90;;;;;;5108680;28;20239;-75
2021/03/05 03:53:04;;;;;;;4.53;3.33;;;2.20;99.90;;;;;;5109110;28;20213;-75
2021/03/05 03:55:31;;;;;;;4.03;3.17;;;2.20;99.90;;;;;;5108715;28;20692;-75
2021/03/05 03:57:58;;;;;;;5.43;3.00;;;2.10;99.90;;;;;;5108623;28;20206;-75
2021/03/05 04:00:25;;;;;;;5.17;2.53;;;2.20;99.90;;;;;;5108347;28;20271;-75
2021/03/05 04:02:53;;;;;;;7.13;3.37;;;2.20;99.90;;;;;;5107803;28;20627;-75
2021/03/05 04:05:23;;;;;;;4.03;2.80;;;2.20;99.90;;;;;;5108735;28;20218;-75
2021/03/05 04:07:50;;;;;;;4.40;2.80;;;2.20;99.90;;;;;;5110738;28;20206;-75
2021/03/05 04:10:17;;;;;;;3.50;3.20;;;2.20;99.90;;;;;;5112813;28;20251;-75
2021/03/05 04:12:46;;;;;;;4.30;2.30;;;2.20;99.90;;;;;;5112607;28;20247;-75
2021/03/05 04:15:13;;;;;;;4.63;3.00;;;2.10;99.90;;;;;;5112844;28;20206;-75
2021/03/05 04:17:40;;;;;;;2.87;2.67;;;2.10;99.90;;;;;;5112609;28;20218;-75
2021/03/05 04:20:08;;;;;;;4.70;3.10;;;2.00;99.90;;;;;;5112598;28;20202;-75
2021/03/05 04:22:34;;;;;;;6.37;2.93;;;2.00;99.90;;;;;;5112564;28;20202;-76
2021/03/05 04:25:01;;;;;;;3.60;3.13;;;2.00;99.90;;;;;;5112693;28;20202;-75
2021/03/05 04:27:27;;;;;;;3.83;3.00;;;1.90;99.90;;;;;;5112627;28;20210;-75
2021/03/05 04:29:54;;;;;;;5.93;3.70;;;2.00;99.90;;;;;;5112197;28;20255;-75
2021/03/05 04:32:20;;;;;;;6.80;3.27;;;2.00;99.90;;;;;;5112681;28;20217;-75
2021/03/05 04:34:47;;;;;;;6.57;3.30;;;1.90;99.90;;;;;;5112250;28;20198;-75
2021/03/05 04:37:13;;;;;;;6.70;3.20;;;1.90;99.90;;;;;;5112324;28;20264;-75
2021/03/05 04:39:39;;;;;;;4.83;3.53;;;1.90;99.90;;;;;;5112366;28;20221;-75
2021/03/05 04:42:05;;;;;;;5.73;3.40;;;1.90;99.90;;;;;;5112258;28;20311;-76
2021/03/05 04:44:31;;;;;;;5.30;3.60;;;1.90;99.90;;;;;;5112597;28;20259;-76
2021/03/05 04:46:59;;;;;;;5.60;3.50;;;1.90;99.90;;;;;;5112125;28;20210;-76
2021/03/05 04:49:25;;;;;;;4.53;3.70;;;1.80;99.90;;;;;;5112323;28;20279;-76
2021/03/05 04:51:51;;;;;;;4.13;3.70;;;1.80;99.90;;;;;;5111975;28;20270;-74
2021/03/05 04:54:18;;;;;;;4.43;2.93;;;1.90;99.90;;;;;;5112277;28;20611;-74
2021/03/05 04:56:44;;;;;;;8.17;3.53;;;1.90;99.90;;;;;;5111776;28;20233;-74
2021/03/05 04:59:10;;;;;;;4.60;3.60;;;1.90;99.90;;;;;;5112181;28;20202;-75
2021/03/05 05:01:36;;;;;;;5.30;3.70;;;1.90;99.90;;;;;;5110416;28;20302;-75
2021/03/05 05:04:03;;;;;;;4.60;3.13;;;1.90;99.90;;;;;;5110743;28;20206;-75
2021/03/05 05:06:29;;;;;;;4.37;2.80;;;1.90;99.90;;;;;;5110494;28;20210;-75
2021/03/05 05:08:55;;;;;;;3.20;2.90;;;1.90;99.90;;;;;;5110292;28;20213;-75
2021/03/05 05:11:21;;;;;;;5.03;2.97;;;1.90;99.90;;;;;;5110267;28;20668;-74
2021/03/05 05:13:48;;;;;;;3.73;3.00;;;1.90;99.90;;;;;;5110439;28;20202;-73
2021/03/05 05:16:14;;;;;;;4.07;3.00;;;2.00;99.90;;;;;;5110484;28;20226;-73
2021/03/05 05:18:40;;;;;;;4.33;2.80;;;1.90;99.90;;;;;;5109846;28;20400;-73
2021/03/05 05:21:07;;;;;;;4.53;3.00;;;2.00;99.90;;;;;;5110200;28;20206;-73
2021/03/05 05:23:33;;;;;;;3.40;3.10;;;2.00;99.90;;;;;;5110541;28;20206;-73
2021/03/05 05:25:59;;;;;;;3.43;3.03;;;2.00;99.90;;;;;;5110279;28;20214;-76
2021/03/05 05:28:25;;;;;;;3.00;2.77;;;2.00;99.90;;;;;;5110205;28;20206;-76
2021/03/05 05:30:51;;;;;;;4.67;2.90;;;2.00;99.90;;;;;;5110279;28;20225;-75
2021/03/05 05:33:21;;;;;;;4.57;2.97;;;1.90;99.90;;;;;;5110256;28;20731;-75
2021/03/05 05:35:47;;;;;;;6.07;3.60;;;1.90;99.90;;;;;;5110029;28;20222;-74
2021/03/05 05:38:14;;;;;;;4.00;3.27;;;1.90;99.90;;;;;;5110184;28;20198;-75
2021/03/05 05:40:40;;;;;;;4.37;3.63;;;1.90;99.90;;;;;;5109976;28;20222;-75
2021/03/05 05:43:06;;;;;;;6.23;3.43;;;1.90;99.90;;;;;;5110355;28;20266;-75
2021/03/05 05:45:32;;;;;;;3.80;3.30;;;1.90;99.90;;;;;;5110181;28;20206;-75
2021/03/05 05:48:00;;;;;;;4.03;3.70;;;1.80;99.90;;;;;;5109977;28;20203;-75
2021/03/05 05:50:28;;;;;;;5.23;3.87;;;1.80;99.90;;;;;;5109698;28;20205;-75
2021/03/05 05:52:56;;;;;;;5.70;3.70;;;1.90;99.90;;;;;;5109804;28;20205;-74
2021/03/05 05:55:24;;;;;;;4.20;3.80;;;1.80;99.90;;;;;;5109739;28;20202;-75
2021/03/05 05:57:51;;;;;;;4.17;3.77;;;1.80;99.90;;;;;;5109653;28;20198;-74
2021/03/05 06:00:18;;;;;;;4.93;3.50;;;1.80;99.90;;;;;;5091695;28;512754;-74
2021/03/05 06:02:46;;;;;;;3.90;3.30;;;1.80;99.90;;;;;;5110731;27;20206;-74
2021/03/05 06:05:14;;;;;;;6.47;3.50;;;1.70;99.90;;;;;;5110715;28;20213;-75
2021/03/05 06:07:42;;;;;;;6.00;3.57;;;1.60;99.90;;;;;;5110407;28;20252;-75
2021/03/05 06:10:11;;;;;;;3.87;3.23;;;1.60;99.90;;;;;;5110380;28;20606;-75
2021/03/05 06:12:38;;;;;;;4.93;3.73;;;1.60;99.90;;;;;;5110537;28;20209;-75
2021/03/05 06:15:05;;;;;;;4.20;3.80;;;1.60;99.90;;;;;;5110642;28;20217;-75
2021/03/05 06:17:42;;;;;;;4.07;3.67;;;1.60;99.90;;;;;;5110387;28;20236;-75
2021/03/05 06:20:09;;;;;;;5.20;4.13;;;1.60;99.90;;;;;;5110437;28;20267;-75
2021/03/05 06:22:36;;;;;;;4.30;4.00;;;1.60;99.90;;;;;;5110444;28;20214;-75
2021/03/05 06:25:03;;;;;;;5.63;4.70;;;1.60;99.90;;;;;;5110157;28;20205;-75
2021/03/05 06:27:30;;;;;;;7.77;4.60;;;1.60;99.90;;;;;;5110159;28;20210;-75
2021/03/05 06:29:57;;;;;;;6.00;4.80;;;1.50;99.90;;;;;;5108972;28;20206;-75
2021/03/05 06:32:35;;;;;;;4.70;4.30;;;1.50;99.90;;;;;;5110187;28;20327;-75
2021/03/05 06:35:01;;;;;;;4.60;4.20;;;1.40;99.90;;;;;;5109533;28;20186;-75
2021/03/05 06:37:41;;;;;;;8.37;4.17;;;1.40;99.90;;;;;;5109871;28;20226;-74
2021/03/05 06:40:09;;;;;;;6.20;4.40;;;1.50;99.90;;;;;;5110034;28;20186;-74
2021/03/05 06:42:48;;;;;;;4.30;3.90;;;1.70;99.90;;;;;;5109880;28;20226;-74
2021/03/05 06:45:19;;;;;;;5.00;4.03;;;1.80;99.90;;;;;;5110187;28;20562;-74
2021/03/05 06:48:03;;;;;;;4.20;3.77;;;1.90;99.90;;;;;;5109702;28;20190;-74
2021/03/05 06:50:30;;;;;;;4.43;3.90;;;2.00;99.90;;;;;;5109990;28;20202;-74
2021/03/05 06:52:56;;;;;;;4.27;3.83;;;2.10;99.90;;;;;;5109578;28;20206;-74
2021/03/05 06:55:23;;;;;;;4.10;3.37;;;2.10;99.90;;;;;;5109726;28;20206;-74
2021/03/05 06:57:50;;;;;;;3.77;3.37;;;2.00;99.90;;;;;;5109573;28;20276;-74
2021/03/05 07:00:19;;;;;;;4.73;3.80;;;2.00;99.90;;;;;;5109195;28;20249;-76
2021/03/05 07:02:45;;;;;;;3.20;3.00;;;1.90;99.90;;;;;;5109227;28;20213;-75
2021/03/05 07:05:12;;;;;;;3.73;3.43;;;2.00;99.90;;;;;;5109297;28;20200;-74
2021/03/05 07:07:43;;;;;;;4.20;3.70;;;2.00;99.90;;;;;;5109044;28;20663;-75
2021/03/05 07:10:11;;;;;;;4.00;3.60;;;2.00;99.90;;;;;;5103309;28;20297;-73
2021/03/05 07:12:38;;;;;;;6.00;3.47;;;2.00;99.90;;;;;;5109207;28;20190;-75
2021/03/05 07:15:06;;;;;;;3.33;3.03;;;1.90;99.90;;;;;;5109260;28;20549;-76
2021/03/05 07:17:34;;;;;;;5.80;3.60;;;2.00;99.90;;;;;;5108901;28;20265;-76
2021/03/05 07:20:00;;;;;;;3.43;3.13;;;2.00;99.90;;;;;;5109097;28;20213;-76
2021/03/05 07:22:29;;;;;;;5.47;3.40;;;2.00;99.90;;;;;;5109172;28;20530;-74
2021/03/05 07:24:56;;;;;;;3.90;3.37;;;2.10;99.90;;;;;;5109228;28;20202;-76
2021/03/05 07:27:28;;;;;;;3.40;3.20;;;2.10;99.90;;;;;;5108770;28;20229;-76
2021/03/05 07:29:56;;;;;;;3.80;3.27;;;2.20;99.90;;;;;;5099764;28;20230;-76
2021/03/05 07:32:32;;;;;;;4.80;3.77;;;2.20;99.90;;;;;;5088551;28;20719;-75
2021/03/05 07:35:00;;;;;;;3.87;3.47;;;2.40;99.90;;;;;;5088471;28;20301;-75
2021/03/05 07:37:32;;;;;;;5.70;3.80;;;2.40;99.90;;;;;;5088012;28;20885;-75
2021/03/05 07:40:03;;;;;;;5.67;3.37;;;2.50;99.90;;;;;;5088939;28;20195;-75
2021/03/05 07:42:32;;;;;;;3.93;3.40;;;2.60;99.90;;;;;;5108263;28;20296;-73
2021/03/05 07:44:58;;;;;;;4.03;3.73;;;2.60;99.90;;;;;;5108255;28;20255;-75
2021/03/05 07:47:25;;;;;;;5.73;4.00;;;2.70;99.90;;;;;;5108479;28;20208;-75
2021/03/05 07:49:53;;;;;;;4.23;3.83;;;2.60;99.90;;;;;;5108448;28;20205;-75
2021/03/05 07:52:20;;;;;;;3.93;3.63;;;2.70;99.90;;;;;;5108420;28;20384;-77
2021/03/05 07:54:48;;;;;;;3.80;3.50;;;2.70;99.90;;;;;;5107032;28;20680;-76
2021/03/05 07:57:49;;;;;;;4.93;3.67;;;2.90;99.90;;;;;;5102945;28;20233;-75
2021/03/05 08:00:45;;;;;;;3.90;3.50;;;3.00;99.90;;;;;;5103459;28;20671;-75
2021/03/05 08:03:12;;;;;;;4.63;3.87;;;3.10;99.90;;;;;;5104971;28;20552;-76
2021/03/05 08:05:40;;;;;;;4.70;4.13;;;3.20;99.90;;;;;;5104938;28;20198;-76
2021/03/05 08:08:19;;;;;;;4.40;4.00;;;3.40;99.90;;;;;;5104768;28;20301;-76
2021/03/05 08:10:47;;;;;;;4.57;3.80;;;3.50;99.90;;;;;;5105250;28;20196;-76
2021/03/05 08:13:47;;;;;;;4.23;3.70;;;3.50;99.90;;;;;;5104369;28;20664;-76
2021/03/05 08:16:47;;;;;;;5.43;4.00;;;3.50;99.90;;;;;;5104519;28;20229;-76
2021/03/05 08:19:47;;;;;;;4.60;4.20;;;3.50;99.90;;;;;;5104780;28;20197;-76
2021/03/05 08:22:15;;;;;;;6.30;4.33;;;3.60;99.90;;;;;;5104425;28;20583;-72
2021/03/05 08:24:42;;;;;;;5.00;4.60;;;3.60;99.90;;;;;;5104571;28;20205;-73
2021/03/05 08:27:24;;;;;;;5.73;4.83;;;3.70;99.90;;;;;;5104768;28;20711;-76
2021/03/05 08:29:56;;;;;;;5.17;4.70;;;3.80;99.90;;;;;;5087108;27;20687;-76
2021/03/05 08:32:44;;;;;;;5.50;4.60;;;3.90;99.90;;;;;;5104452;28;20266;-76
2021/03/05 08:35:13;;;;;;;6.77;4.80;;;4.00;99.90;;;;;;5104749;28;20214;-76
2021/03/05 08:37:41;;;;;;;4.93;4.50;;;4.20;99.90;;;;;;5104446;28;20218;-76
2021/03/05 08:40:31;;;;;;;5.67;4.70;;;4.20;99.90;;;;;;5103937;28;20210;-76
2021/03/05 08:43:16;;;;;;;6.07;5.13;;;4.30;99.90;;;;;;5104318;28;20207;-75
2021/03/05 08:45:44;;;;;;;6.47;5.60;;;4.20;99.90;;;;;;5104303;28;20251;-75
2021/03/05 08:48:12;;;;;;;6.33;5.10;;;4.10;99.90;;;;;;5104267;28;20210;-76
2021/03/05 08:50:39;;;;;;;6.60;5.40;;;4.10;99.90;;;;;;5104606;28;20202;-75
2021/03/05 08:53:07;;;;;;;7.07;5.23;;;4.10;99.90;;;;;;5105245;28;20337;-74
2021/03/05 08:55:35;;;;;;;5.97;4.97;;;4.10;99.90;;;;;;5105279;28;20198;-75
2021/03/05 08:58:03;;;;;;;5.20;4.73;;;4.10;99.90;;;;;;5107812;28;20202;-75
2021/03/05 09:00:31;;;;;;;5.77;5.03;;;3.90;99.90;;;;;;5107416;28;21136;-76
2021/03/05 09:03:04;;;;;;;5.83;5.17;;;4.00;99.90;;;;;;5107336;28;20299;-76
2021/03/05 09:05:33;;;;;;;5.13;4.63;;;4.00;99.90;;;;;;5107880;28;20206;-77
2021/03/05 09:08:00;;;;;;;6.00;4.90;;;4.10;99.90;;;;;;5106985;28;20669;-76
2021/03/05 09:10:40;;;;;;;5.80;5.30;;;4.20;99.90;;;;;;5107649;28;20252;-76
2021/03/05 09:13:07;;;;;;;9.10;5.17;;;4.20;99.90;;;;;;5107455;28;20210;-76
2021/03/05 09:15:42;;;;;;;5.83;5.23;;;4.30;99.90;;;;;;5108323;28;20263;-76
2021/03/05 09:18:10;;;;;;;7.33;5.00;;;4.40;99.90;;;;;;5107612;28;20201;-76
2021/03/05 09:20:42;;;;;;;7.03;4.83;;;4.40;99.90;;;;;;5107654;28;20357;-76
2021/03/05 09:23:20;;;;;;;5.50;4.97;;;4.50;99.90;;;;;;5107710;28;20258;-76
2021/03/05 09:25:54;;;;;;;5.63;4.20;;;4.60;99.90;;;;;;5107257;28;20559;-76
2021/03/05 09:28:23;;;;;;;7.33;4.93;;;4.80;99.90;;;;;;5107497;28;20582;-76
2021/03/05 09:30:51;;;;;;;8.63;4.60;;;4.80;99.90;;;;;;5106888;28;20668;-78
2021/03/05 09:33:17;;;;;;;4.13;3.83;;;4.80;99.90;;;;;;5107477;28;20206;-79
2021/03/05 09:35:44;;;;;;;5.40;4.43;;;4.90;99.90;;;;;;5107395;28;20563;-76
2021/03/05 09:38:16;;;;;;;4.90;3.90;;;5.00;99.90;;;;;;5107354;28;20297;-76
2021/03/05 09:40:42;;;;;;;5.97;4.03;;;5.00;99.90;;;;;;5107498;28;20345;-76
2021/03/05 09:43:15;;;;;;;8.63;3.47;;;5.10;99.90;;;;;;5107519;28;20285;-76
2021/03/05 09:45:43;;;;;;;4.10;3.80;;;5.40;99.90;;;;;;5107728;28;20251;-76
2021/03/05 09:48:11;;;;;;;4.67;3.50;;;5.60;99.90;;;;;;5107756;28;20233;-76
2021/03/05 09:50:39;;;;;;;5.00;3.40;;;5.80;99.90;;;;;;5107278;28;20202;-76
2021/03/05 09:53:26;;;;;;;9.03;3.53;;;6.10;99.90;;;;;;5107264;28;20205;-76
2021/03/05 09:55:54;;;;;;;5.03;3.20;;;6.30;99.90;;;;;;5107541;28;20809;-76
2021/03/05 09:58:22;;;;;;;6.00;3.33;;;6.40;99.90;;;;;;5107689;28;20216;-76
2021/03/05 10:00:49;;;;;;;3.50;3.17;;;6.40;99.90;;;;;;5107203;28;20613;-76
2021/03/05 10:03:19;;;;;;;5.97;2.90;;;6.40;99.90;;;;;;5107629;28;20210;-76
2021/03/05 10:05:46;;;;;;;3.03;2.70;;;6.30;99.90;;;;;;5106571;28;20198;-76
2021/03/05 10:08:15;;;;;;;2.93;2.73;;;6.40;99.90;;;;;;5107570;28;20297;-77
2021/03/05 10:10:56;;;;;;;2.87;2.67;;;6.60;99.90;;;;;;5107407;28;20206;-76
2021/03/05 10:13:56;;;;;;;3.33;3.03;;;6.60;99.90;;;;;;5107428;28;20210;-76
2021/03/05 10:16:27;;;;;;;3.90;2.50;;;6.50;99.90;;;;;;5107426;28;20646;-76
2021/03/05 10:18:56;;;;;;;2.80;2.50;;;6.70;99.90;;;;;;5107349;28;20605;-76
2021/03/05 10:21:24;;;;;;;2.70;1.97;;;6.90;99.90;;;;;;5106777;28;20690;-76
2021/03/05 10:23:50;;;;;;;3.47;1.70;;;7.00;99.90;;;;;;5106821;28;20246;-76
2021/03/05 10:26:22;;;;;;;2.43;1.90;;;7.20;99.90;;;;;;5106993;28;20323;-76
2021/03/05 10:28:57;;;;;;;2.80;1.83;;;7.30;99.90;;;;;;5106504;28;20253;-76
2021/03/05 10:31:43;;;;;;;1.53;1.43;;;7.50;99.90;;;;;;5107590;28;20193;-76
2021/03/05 10:34:25;;;;;;;4.27;1.70;;;7.50;99.90;;;;;;5106751;28;20190;-77
2021/03/05 10:36:54;;;;;;;1.77;1.43;;;7.50;99.90;;;;;;5106917;28;20226;-79
2021/03/05 10:39:20;;;;;;;1.60;1.50;;;7.50;99.90;;;;;;5106830;28;20206;-76
2021/03/05 10:41:54;;;;;;;2.67;1.80;;;7.60;99.90;;;;;;5105752;28;20228;-76
2021/03/05 10:44:23;;;;;;;2.07;1.97;;;7.70;99.90;;;;;;5106701;28;20490;-76
2021/03/05 10:46:50;;;;;;;2.07;1.53;;;7.70;99.90;;;;;;5105824;28;20213;-75
2021/03/05 10:49:16;;;;;;;1.80;1.70;;;7.70;99.90;;;;;;5106167;28;20539;-75
2021/03/05 10:51:42;;;;;;;1.67;1.57;;;7.70;99.90;;;;;;5105366;28;20285;-75
2021/03/05 10:54:09;;;;;;;2.20;2.00;;;7.90;99.90;;;;;;5106106;28;20652;-75
2021/03/05 10:56:35;;;;;;;5.60;1.97;;;8.00;99.90;;;;;;5105238;28;20692;-76
2021/03/05 10:59:01;;;;;;;3.40;2.10;;;8.20;99.90;;;;;;5105107;28;20206;-75
2021/03/05 11:01:28;;;;;;;7.17;2.17;;;8.20;99.90;;;;;;5108437;28;20588;-76
2021/03/05 11:03:55;;;;;;;2.37;2.17;;;8.30;99.90;;;;;;5108359;28;20210;-75
2021/03/05 11:06:21;;;;;;;2.87;2.00;;;8.10;99.90;;;;;;5109083;28;20210;-75
2021/03/05 11:08:48;;;;;;;2.10;1.90;;;8.10;99.90;;;;;;5108988;28;20198;-75
2021/03/05 11:11:15;;;;;;;1.90;1.43;;;8.20;99.90;;;;;;5109148;28;20263;-75
2021/03/05 11:13:42;;;;;;;1.93;1.40;;;8.00;99.90;;;;;;5109524;28;20206;-76
2021/03/05 11:16:09;;;;;;;2.53;1.90;;;7.80;99.80;;;;;;5108331;28;20258;-76
2021/03/05 11:18:36;;;;;;;3.10;1.53;;;7.50;99.90;;;;;;5109041;28;20210;-75
2021/03/05 11:21:04;;;;;;;1.50;1.27;;;7.30;99.90;;;;;;5109164;28;20202;-76
2021/03/05 11:23:30;;;;;;;2.20;1.20;;;7.40;99.90;;;;;;5109357;28;20241;-76
2021/03/05 11:25:57;;;;;;;0.93;0.87;;;7.60;99.90;;;;;;5108927;28;20288;-75
2021/03/05 11:28:24;;;;;;;4.57;1.57;;;7.90;99.30;;;;;;5109203;28;20231;-76
2021/03/05 11:30:51;;;;;;;1.00;0.87;;;8.20;98.70;;;;;;5109008;28;20216;-76
2021/03/05 11:33:17;;;;;;;1.50;1.10;;;8.40;97.50;;;;;;5109288;28;20282;-76
2021/03/05 11:35:44;;;;;;;6.17;1.10;;;8.70;97.90;;;;;;5108732;28;20202;-76
2021/03/05 11:38:10;;;;;;;0.90;0.90;;;8.90;97.40;;;;;;5108571;28;20230;-76
2021/03/05 11:40:37;;;;;;;1.30;1.20;;;8.80;96.40;;;;;;5108793;28;20636;-76
2021/03/05 11:43:04;;;;;;;1.07;1.07;;;8.80;96.30;;;;;;5108976;28;20210;-76
2021/03/05 11:45:31;;;;;;;0.80;0.80;;;8.80;95.30;;;;;;5108652;28;20668;-76
2021/03/05 11:47:57;;;;;;;1.33;1.00;;;9.00;95.30;;;;;;5108771;28;20209;-77
2021/03/05 11:50:24;;;;;;;1.17;0.80;;;9.20;94.90;;;;;;5108498;28;20210;-76
2021/03/05 11:52:51;;;;;;;3.03;0.90;;;9.20;95.10;;;;;;5108503;28;20221;-76
2021/03/05 11:55:18;;;;;;;1.00;1.00;;;9.30;94.80;;;;;;5108667;28;20281;-76
2021/03/05 11:57:44;;;;;;;3.40;0.87;;;9.40;94.00;;;;;;5108528;28;20225;-76
2021/03/05 12:00:12;;;;;;;1.67;0.80;;;9.40;93.50;;;;;;5108321;28;20244;-76
2021/03/05 12:02:38;;;;;;;3.67;0.80;;;9.50;93.30;;;;;;5108854;28;20259;-76
2021/03/05 12:05:06;;;;;;;1.43;0.70;;;9.80;92.80;;;;;;5108439;28;20250;-76
2021/03/05 12:07:33;;;;;;;1.47;1.07;;;10.00;92.40;;;;;;5108352;28;20210;-77
2021/03/05 12:10:00;;;;;;;3.10;1.00;;;10.00;91.60;;;;;;5108162;28;20206;-76
2021/03/05 12:12:27;;;;;;;2.23;0.83;;;9.90;90.80;;;;;;5108575;28;20288;-76
2021/03/05 12:14:53;;;;;;;2.73;0.80;;;9.70;91.40;;;;;;5108598;28;20205;-76
2021/03/05 12:17:20;;;;;;;2.03;0.90;;;9.70;90.80;;;;;;5108608;28;20225;-76
2021/03/05 12:19:47;;;;;;;0.87;0.63;;;9.80;91.30;;;;;;5108567;28;20691;-76
2021/03/05 12:22:13;;;;;;;2.10;1.03;;;9.80;88.70;;;;;;5108062;28;20723;-77
2021/03/05 12:24:40;;;;;;;1.80;0.83;;;9.80;90.50;;;;;;5108619;28;20210;-76
2021/03/05 12:27:08;;;;;;;2.47;0.80;;;9.70;88.10;;;;;;5108367;28;20213;-76
2021/03/05 12:29:35;;;;;;;3.03;0.60;;;9.60;87.70;;;;;;5111310;28;20684;-77
2021/03/05 12:32:01;;;;;;;1.63;0.40;;;9.80;89.40;;;;;;5112397;28;20576;-76
2021/03/05 12:34:27;;;;;;;0.83;0.50;;;9.80;89.30;;;;;;5112554;28;20255;-74
2021/03/05 12:36:54;;;;;;;1.10;0.70;;;9.90;88.70;;;;;;5112313;28;20237;-74
2021/03/05 12:39:20;;;;;;;1.43;0.60;;;9.80;85.70;;;;;;5112497;28;20206;-74
2021/03/05 12:41:49;;;;;;;3.63;1.00;;;9.80;86.40;;;;;;5111923;28;20230;-74
2021/03/05 12:44:16;;;;;;;0.70;0.70;;;9.80;88.30;;;;;;5112461;28;20210;-74
2021/03/05 12:46:42;;;;;;;1.57;0.50;;;10.00;88.10;;;;;;5112109;28;20216;-73
2021/03/05 12:49:08;;;;;;;0.70;0.70;;;10.20;87.40;;;;;;5112125;28;20278;-74
2021/03/05 12:51:34;;;;;;;1.37;0.57;;;10.30;86.30;;;;;;5112037;28;20198;-74
2021/03/05 12:54:01;;;;;;;1.90;0.40;;;10.60;86.70;;;;;;5112082;28;20206;-77
2021/03/05 12:56:27;;;;;;;0.87;0.70;;;10.70;83.80;;;;;;5112083;28;20294;-84
2021/03/05 12:58:54;;;;;;;2.03;0.70;;;10.70;80.60;;;;;;5109587;28;20252;-75
2021/03/05 13:01:21;;;;;;;0.60;0.60;;;10.70;80.00;;;;;;5109956;28;20234;-75
2021/03/05 13:03:47;;;;;;;0.80;0.50;;;10.70;79.70;;;;;;5111938;28;20263;-74